PWSweather.com
Personal Weather Stations
Station Observations
STAW2
Wielkopolska, Staw 2PL 62-420

WielkopolskaStaw 2PL 62-420

Lat: 52.31954663122409, Lon: 17.747787594926194

Elevation: 301.84

Station Type: Davis Vantage Pro2

http://pogoda-staw.pl

Latest ConditionsUpdated 4:45:00 AM GMT+01:01 Monday, Feb 20, 2017
Currently Today's Max Today's Min Today's Average
Temperature 36.4°F2.4°C 36.4°F2.4°C 33.7°F0.9°C 35.2°F1.8°C
Dew Point 35.1°F1.7°C 35.1°F1.7°C 31.9°F-0.1°C 33.5°F0.8°C
Winds 3.5 mph SW5.6 kmh SW 3.5 mph SW5.6 kmh SW - 1.8 mph 2.9 kmh
Wind Gusts 3.5 mph5.6 kmh 5.8 mph9.3 kmh - -
Humidity 95% 95% 92% 93%
Pressure 29.98 in1015.2 mb 30.01 in1016.3 mb 29.98 in1015.2 mb -
Hour Temp Dew Point Humidity Winds Wind Gusts Pressure Precip Precip Rate Daily Precip Total
04:45 AM 36.4°F2.4°C 35.1°F1.7°C 95% 3.5 mph SW5.6 kmh SW 3.5 mph5.6 kmh 29.98 in1015.2 mb - 0.00 in0.0 mm 0.00 in0.0 mm
04:30 AM 36.1°F2.3°C 34.8°F1.6°C 95% 2.3 mph SW3.7 kmh SW 3.5 mph5.6 kmh 29.99 in1015.6 mb - 0.00 in0.0 mm 0.00 in0.0 mm
04:15 AM 36.0°F2.2°C 34.4°F1.3°C 94% 1.2 mph SW1.9 kmh SW 5.8 mph9.3 kmh 29.98 in1015.2 mb - 0.00 in0.0 mm 0.00 in0.0 mm
04:00 AM 36.0°F2.2°C 34.5°F1.4°C 94% 3.5 mph SSW5.6 kmh SSW 4.6 mph7.4 kmh 29.99 in1015.6 mb - 0.00 in0.0 mm 0.00 in0.0 mm
03:45 AM 35.7°F2.1°C 34.1°F1.2°C 94% 2.3 mph SSW3.7 kmh SSW 4.6 mph7.4 kmh 29.99 in1015.6 mb - 0.00 in0.0 mm 0.00 in0.0 mm
03:30 AM 35.5°F1.9°C 33.9°F1.1°C 94% 1.2 mph SW1.9 kmh SW 3.5 mph5.6 kmh 29.99 in1015.6 mb - 0.00 in0.0 mm 0.00 in0.0 mm
03:15 AM 35.2°F1.8°C 33.6°F0.9°C 94% 1.2 mph SSW1.9 kmh SSW 3.5 mph5.6 kmh 29.99 in1015.6 mb - 0.00 in0.0 mm 0.00 in0.0 mm
03:00 AM 35.2°F1.8°C 33.3°F0.7°C 93% 1.2 mph SSW1.9 kmh SSW 2.3 mph3.7 kmh 29.99 in1015.6 mb - 0.00 in0.0 mm 0.00 in0.0 mm
02:45 AM 35.3°F1.8°C 33.5°F0.8°C 93% 1.2 mph S1.9 kmh S 2.3 mph3.7 kmh 29.99 in1015.6 mb - 0.00 in0.0 mm 0.00 in0.0 mm
02:30 AM 35.7°F2.1°C 33.9°F1.1°C 93% 1.2 mph S1.9 kmh S 3.5 mph5.6 kmh 29.99 in1015.6 mb - 0.00 in0.0 mm 0.00 in0.0 mm
02:15 AM 35.6°F2.0°C 33.8°F1.0°C 93% 2.3 mph WSW3.7 kmh WSW 3.5 mph5.6 kmh 29.99 in1015.6 mb - 0.00 in0.0 mm 0.00 in0.0 mm
02:00 AM 35.4°F1.9°C 33.6°F0.9°C 93% 1.2 mph S1.9 kmh S 2.3 mph3.7 kmh 30.00 in1015.9 mb - 0.00 in0.0 mm 0.00 in0.0 mm
01:45 AM 35.4°F1.9°C 33.3°F0.7°C 92% 1.2 mph S1.9 kmh S 2.3 mph3.7 kmh 30.00 in1015.9 mb - 0.00 in0.0 mm 0.00 in0.0 mm
01:30 AM 35.2°F1.8°C 33.4°F0.8°C 93% 1.2 mph SSW1.9 kmh SSW 3.5 mph5.6 kmh 30.00 in1015.9 mb - 0.00 in0.0 mm 0.00 in0.0 mm
01:15 AM 35.1°F1.7°C 33.3°F0.7°C 93% 2.3 mph S3.7 kmh S 3.5 mph5.6 kmh 30.01 in1016.3 mb - 0.00 in0.0 mm 0.00 in0.0 mm
01:00 AM 34.5°F1.4°C 32.7°F0.4°C 93% 2.3 mph SW3.7 kmh SW 4.6 mph7.4 kmh 30.01 in1016.3 mb - 0.00 in0.0 mm 0.00 in0.0 mm
12:45 AM 34.3°F1.3°C 32.5°F0.3°C 93% 1.2 mph S1.9 kmh S 2.3 mph3.7 kmh 30.01 in1016.3 mb - 0.00 in0.0 mm 0.00 in0.0 mm
12:30 AM 34.1°F1.2°C 32.6°F0.3°C 94% 2.3 mph SSW3.7 kmh SSW 3.5 mph5.6 kmh 30.01 in1016.3 mb - 0.00 in0.0 mm 0.00 in0.0 mm
12:15 AM 33.9°F1.1°C 32.1°F0.1°C 93% 1.2 mph S1.9 kmh S 2.3 mph3.7 kmh 30.01 in1016.3 mb - 0.00 in0.0 mm 0.00 in0.0 mm
12:00 AM 33.7°F0.9°C 31.9°F-0.1°C 93% 1.2 mph SW1.9 kmh SW 3.5 mph5.6 kmh 30.01 in1016.3 mb - 0.00 in0.0 mm 0.00 in0.0 mm